Weather History for KHQU - April, 2014

Change the Weather History Date:

Monday, April 7, 2014

  Actual Average (KDBN) Record (KDBN)
Temperature  
Mean Temperature 56 °F -  
Max Temperature 63 °F 74 °F 89 °F (1954)
Min Temperature 50 °F 45 °F 30 °F (1982)
Degree Days  
Heating Degree Days 8    
Growing Degree Days 6 (Base 50)    
Moisture  
Dew Point 57 °F    
Average Humidity 98    
Maximum Humidity 100    
Minimum Humidity 82    
Precipitation  
Precipitation 0.00 in - - ()
Sea Level Pressure  
Sea Level Pressure 29.87 in    
Wind  
Wind Speed 6 mph (SE)    
Max Wind Speed 22 mph    
Max Gust Speed 33 mph    
Visibility 7 miles    
Events      
Averages and records for this station are not official NWS values.
T = Trace of Precipitation, MM = Missing Value Source: NWS Daily Summary

Daily Weather History Graph

Daily Weather History Graph

Search for Another Location

Airport or City:

Trip Planner

Search our weather history database for the weather conditions in past years. The results will help you decide how hot, cold, wet, or windy it might be!

Date:

Astronomy

Apr. 07, 2014 Rise Set
Actual Time 7:09 AM EDT 7:55 PM EDT
Civil Twilight 6:44 AM EDT 8:20 PM EDT
Nautical Twilight 6:14 AM EDT 8:50 PM EDT
Astronomical Twilight 5:44 AM EDT 9:20 PM EDT
Moon 1:12 PM EDT (4/7) 2:23 AM EDT (4/7)
Length of Visible Light 13h 35m
Length of Day
12h 45m
First Quarter, 53% of the Moon is Illuminated
Apr 7
First Quarter
Apr 15
Full
Apr 22
Last Quarter
Apr 29
New
May 6
First Quarter

Hourly Weather History & Observations

Time (EDT) Temp. Dew Point Humidity Pressure Visibility Wind Dir Wind Speed Gust Speed Precip Events Conditions
12:15 AM 56.3 °F 51.1 °F 83% 30.04 in 10.0 mi East 5.8 mph - N/A   Overcast
12:35 AM 56.3 °F 50.9 °F 82% 30.01 in 10.0 mi East 8.1 mph - N/A   Overcast
1:15 AM 56.3 °F 50.7 °F 82% 30.03 in 10.0 mi East 5.8 mph - N/A   Overcast
1:35 AM 55.9 °F 50.9 °F 83% 30.01 in 10.0 mi East 6.9 mph - N/A   Overcast
1:55 AM 55.4 °F 51.6 °F 87% 29.99 in 10.0 mi ESE 4.6 mph - N/A   Overcast
2:15 AM 55.4 °F 51.4 °F 87% 29.98 in 10.0 mi East 4.6 mph - N/A   Overcast
2:35 AM 55.6 °F 51.8 °F 87% 29.97 in 10.0 mi East 5.8 mph - N/A   Overcast
2:55 AM 55.4 °F 52.2 °F 89% 29.96 in 10.0 mi East 5.8 mph - N/A   Overcast
3:15 AM 55.4 °F 52.9 °F 91% 29.94 in 10.0 mi ESE 6.9 mph - N/A   Overcast
3:35 AM 55.4 °F 53.2 °F 92% 29.95 in 10.0 mi ESE 4.6 mph - N/A   Overcast
3:55 AM 55.4 °F 53.4 °F 93% 29.94 in 10.0 mi ESE 4.6 mph - N/A   Overcast
4:15 AM 55.4 °F 53.8 °F 94% 29.94 in 10.0 mi ESE 4.6 mph - N/A   Overcast
4:35 AM 54.9 °F 54.1 °F 97% 29.92 in 7.0 mi ESE 5.8 mph - N/A   Overcast
4:55 AM 54.7 °F 54.5 °F 99% 29.91 in 7.0 mi ESE 5.8 mph - N/A   Overcast
5:15 AM 54.5 °F 54.5 °F 100% 29.92 in 7.0 mi East 5.8 mph - N/A   Overcast
5:35 AM 54.5 °F 54.5 °F 100% 29.91 in 4.0 mi SE 4.6 mph - N/A   Overcast
5:55 AM 54.1 °F 54.1 °F 100% 29.89 in 2.5 mi East 5.8 mph - N/A   Overcast
6:15 AM 54.1 °F 54.1 °F 100% 29.90 in 2.0 mi SE 5.8 mph - N/A   Overcast
6:35 AM 54.3 °F 54.3 °F 100% 29.91 in 1.8 mi South 3.5 mph - N/A   Overcast
6:55 AM 54.5 °F 54.5 °F 100% 29.92 in 1.5 mi SE 3.5 mph - N/A   Overcast
7:15 AM 54.7 °F 54.7 °F 100% 29.88 in 1.2 mi ESE 5.8 mph - N/A   Overcast
7:35 AM 54.9 °F 54.9 °F 100% 29.88 in 1.2 mi ESE 6.9 mph - N/A   Overcast
8:15 AM 55.6 °F 55.6 °F 100% 29.92 in 0.8 mi Calm Calm - N/A   Overcast
8:35 AM 55.4 °F 55.4 °F 100% 29.93 in 0.8 mi North 3.5 mph - N/A   Overcast
8:55 AM 55.2 °F 55.2 °F 100% 29.94 in 0.8 mi North 4.6 mph - N/A   Overcast
9:15 AM 54.9 °F 54.9 °F 100% 29.94 in 1.2 mi NNE 4.6 mph - N/A   Overcast
9:35 AM 54.7 °F 54.7 °F 100% 29.93 in 1.5 mi NNE 8.1 mph - N/A   Overcast
9:55 AM 53.2 °F 53.2 °F 100% 29.99 in 1.2 mi NNW 21.9 mph 33.4 mph N/A   Overcast
10:15 AM 50.5 °F 50.5 °F 100% 29.99 in 1.5 mi North 9.2 mph 24.2 mph N/A   Overcast
10:35 AM 50.4 °F 50.4 °F 100% 30.00 in 0.8 mi NE 4.6 mph 12.7 mph N/A   Overcast
10:55 AM 50.4 °F 50.4 °F 100% 30.00 in 1.2 mi SE 4.6 mph - N/A   Overcast
11:15 AM 50.4 °F 50.4 °F 100% 29.97 in 3.0 mi ENE 5.8 mph - N/A   Overcast
11:55 AM 51.1 °F 51.1 °F 100% 29.99 in 1.2 mi Calm Calm - N/A   Overcast
12:15 PM 51.3 °F 51.3 °F 100% 29.96 in 1.5 mi ENE 6.9 mph - N/A   Overcast
12:35 PM 51.8 °F 51.8 °F 100% 29.95 in 2.0 mi East 3.5 mph - N/A   Overcast
12:55 PM 52.0 °F 52.0 °F 100% 29.95 in 3.0 mi SE 3.5 mph - N/A   Overcast
1:15 PM 52.7 °F 52.7 °F 100% 29.92 in 1.5 mi ESE 5.8 mph - N/A   Overcast
1:35 PM 53.2 °F 53.2 °F 100% 29.92 in 2.5 mi Calm Calm - N/A   Overcast
1:55 PM 54.5 °F 54.5 °F 100% 29.90 in 3.0 mi SE 4.6 mph - N/A   Overcast
2:15 PM 56.3 °F 56.3 °F 100% 29.88 in 4.0 mi SE 6.9 mph - N/A   Overcast
2:35 PM 57.9 °F 57.9 °F 100% 29.86 in 4.0 mi ESE 8.1 mph - N/A   Overcast
2:55 PM 59.0 °F 59.0 °F 100% 29.79 in 5.0 mi ESE 12.7 mph 21.9 mph N/A   Overcast
3:15 PM 59.9 °F 59.9 °F 100% 29.78 in 10.0 mi SE 8.1 mph 17.3 mph N/A   Overcast
3:35 PM 59.9 °F 59.9 °F 100% 29.81 in 10.0 mi SE 6.9 mph - N/A   Overcast
3:55 PM 59.9 °F 59.9 °F 100% 29.79 in 10.0 mi SSE 10.4 mph - N/A   Overcast
4:15 PM 60.1 °F 60.1 °F 100% 29.76 in 10.0 mi SE 6.9 mph - N/A   Overcast
4:35 PM 60.8 °F 60.8 °F 100% 29.75 in 10.0 mi SSE 9.2 mph 16.1 mph N/A   Mostly Cloudy
4:55 PM 60.8 °F 60.8 °F 100% 29.76 in 10.0 mi SSE 8.1 mph - N/A   Scattered Clouds
5:15 PM 60.8 °F 60.8 °F 100% 29.76 in 10.0 mi SSE 8.1 mph - N/A   Mostly Cloudy
5:35 PM 60.8 °F 60.8 °F 100% 29.74 in 10.0 mi SSE 5.8 mph - N/A   Scattered Clouds
5:55 PM 61.3 °F 61.3 °F 100% 29.75 in 10.0 mi SSE 8.1 mph - N/A   Clear
6:15 PM 61.7 °F 61.7 °F 100% 29.76 in 10.0 mi South 6.9 mph - N/A   Scattered Clouds
6:35 PM 61.7 °F 61.7 °F 100% 29.77 in 10.0 mi SSE 5.8 mph - N/A   Scattered Clouds
6:55 PM 61.7 °F 61.7 °F 100% 29.75 in 10.0 mi SSE 8.1 mph - N/A   Scattered Clouds
7:15 PM 61.9 °F 61.9 °F 100% 29.76 in 10.0 mi South 8.1 mph - N/A   Scattered Clouds
7:35 PM 62.1 °F 62.1 °F 100% 29.76 in 10.0 mi South 5.8 mph - N/A   Mostly Cloudy
7:55 PM 61.9 °F 61.9 °F 100% 29.77 in 10.0 mi South 5.8 mph - N/A   Overcast
8:15 PM 61.7 °F 61.7 °F 100% 29.77 in 10.0 mi SSE 5.8 mph - N/A   Overcast
8:35 PM 61.7 °F 61.7 °F 100% 29.77 in 10.0 mi South 5.8 mph - N/A   Overcast
8:55 PM 61.7 °F 61.7 °F 100% 29.78 in 10.0 mi South 6.9 mph - N/A   Overcast
9:15 PM 61.9 °F 61.9 °F 100% 29.78 in 10.0 mi South 3.5 mph - N/A   Overcast
9:35 PM 62.1 °F 62.1 °F 100% 29.77 in 7.0 mi South 6.9 mph - N/A   Overcast
9:55 PM 62.2 °F 62.2 °F 100% 29.78 in 7.0 mi South 9.2 mph - N/A   Overcast
10:15 PM 62.2 °F 62.2 °F 100% 29.78 in 7.0 mi SSW 6.9 mph - N/A   Overcast
10:35 PM 62.6 °F 62.6 °F 100% 29.78 in 10.0 mi SSW 5.8 mph - N/A   Overcast
10:55 PM 62.6 °F 62.6 °F 100% 29.78 in 7.0 mi South 6.9 mph - N/A   Overcast
11:15 PM 62.8 °F 62.8 °F 100% 29.78 in 10.0 mi South 8.1 mph - N/A   Overcast
11:35 PM 63.0 °F 63.0 °F 100% 29.78 in 10.0 mi SSW 6.9 mph - N/A   Overcast
11:55 PM 63.1 °F 63.1 °F 100% 29.78 in 10.0 mi South 9.2 mph - N/A   Overcast